createdAt,value
2018-03-31T00:01:46.277Z,56.90
2018-03-31T00:04:14.006Z,56.90
2018-03-31T00:06:41.763Z,56.90
2018-03-31T00:09:09.506Z,57.00
2018-03-31T00:11:37.245Z,57.00
2018-03-31T00:14:05.006Z,56.90
2018-03-31T00:16:32.815Z,56.70
2018-03-31T00:19:00.542Z,56.70
2018-03-31T00:21:28.308Z,56.80
2018-03-31T00:23:56.034Z,56.80
2018-03-31T00:26:23.798Z,56.90
2018-03-31T00:28:51.536Z,57.40
2018-03-31T00:31:19.282Z,57.00
2018-03-31T00:33:47.078Z,58.00
2018-03-31T00:36:14.814Z,57.80
2018-03-31T00:38:42.572Z,58.10
2018-03-31T00:41:10.314Z,58.20
2018-03-31T00:43:38.075Z,58.20
2018-03-31T00:46:05.829Z,58.20
2018-03-31T00:48:33.549Z,58.10
2018-03-31T00:51:01.344Z,58.20
2018-03-31T00:53:29.044Z,58.20
2018-03-31T00:55:56.802Z,58.20
2018-03-31T00:58:24.557Z,58.00
2018-03-31T01:00:52.325Z,57.80
2018-03-31T01:03:20.082Z,57.60
2018-03-31T01:05:48.573Z,57.70
2018-03-31T01:08:16.320Z,57.70
2018-03-31T01:10:44.814Z,57.70
2018-03-31T01:13:12.561Z,57.60
2018-03-31T01:15:41.049Z,57.70
2018-03-31T01:18:09.562Z,57.90
2018-03-31T01:20:37.421Z,57.80
2018-03-31T01:23:05.171Z,58.00
2018-03-31T01:25:32.951Z,57.90
2018-03-31T01:28:00.723Z,57.80
2018-03-31T01:30:28.466Z,57.90
2018-03-31T01:32:56.202Z,58.00
2018-03-31T01:35:23.961Z,58.30
2018-03-31T01:37:51.683Z,58.20
2018-03-31T01:40:19.419Z,58.20
2018-03-31T01:42:47.952Z,58.30
2018-03-31T01:45:15.749Z,58.30
2018-03-31T01:47:43.505Z,58.20
2018-03-31T01:50:11.231Z,58.40
2018-03-31T01:52:39.042Z,58.10
2018-03-31T01:55:06.774Z,58.30
2018-03-31T01:57:35.267Z,58.00
2018-03-31T02:00:03.038Z,58.00
2018-03-31T02:02:30.797Z,58.00
2018-03-31T02:04:58.542Z,58.00
2018-03-31T02:07:26.294Z,58.10
2018-03-31T02:09:54.038Z,58.30
2018-03-31T02:12:21.810Z,58.30
2018-03-31T02:14:49.561Z,58.20
2018-03-31T02:17:18.077Z,58.30
2018-03-31T02:19:45.829Z,58.30
2018-03-31T02:22:13.586Z,58.10
2018-03-31T02:24:41.322Z,57.90
2018-03-31T02:27:09.844Z,57.80
2018-03-31T02:29:37.573Z,57.80
2018-03-31T02:32:06.095Z,57.90
2018-03-31T02:34:33.823Z,57.80
2018-03-31T02:37:02.324Z,57.90
2018-03-31T02:39:30.073Z,57.80
2018-03-31T02:41:58.590Z,58.00
2018-03-31T02:44:26.341Z,58.00
2018-03-31T02:46:54.082Z,57.90
2018-03-31T02:49:22.573Z,58.10
2018-03-31T02:51:50.317Z,58.00
2018-03-31T02:54:18.866Z,58.30
2018-03-31T02:56:46.610Z,58.30
2018-03-31T02:59:14.385Z,58.50
2018-03-31T03:01:42.135Z,58.50
2018-03-31T03:04:09.867Z,58.40
2018-03-31T03:06:38.402Z,58.70
2018-03-31T03:09:06.129Z,58.60
2018-03-31T03:11:33.880Z,58.50
2018-03-31T03:14:01.635Z,58.90
2018-03-31T03:16:29.122Z,58.90
2018-03-31T03:18:56.640Z,59.00
2018-03-31T03:21:24.142Z,59.10
2018-03-31T03:23:52.439Z,59.50
2018-03-31T03:26:20.683Z,59.10
2018-03-31T03:28:48.182Z,59.10
2018-03-31T03:31:15.703Z,59.20
2018-03-31T03:33:43.194Z,59.20
2018-03-31T03:36:10.697Z,59.60
2018-03-31T03:38:38.226Z,59.80
2018-03-31T03:41:05.724Z,59.80
2018-03-31T03:43:33.242Z,59.90
2018-03-31T03:46:00.741Z,60.20
2018-03-31T03:48:28.254Z,60.10
2018-03-31T03:50:55.749Z,60.20
2018-03-31T03:53:23.271Z,60.40
2018-03-31T03:55:50.754Z,60.40
2018-03-31T03:58:18.266Z,60.20
2018-03-31T04:00:46.527Z,60.10
2018-03-31T04:03:14.030Z,60.00
2018-03-31T04:05:41.540Z,60.20
2018-03-31T04:08:09.031Z,60.00
2018-03-31T04:10:36.538Z,59.90
2018-03-31T04:13:04.022Z,59.80
2018-03-31T04:15:31.550Z,59.90
2018-03-31T04:17:59.829Z,59.60
2018-03-31T04:20:27.885Z,59.60
2018-03-31T04:22:55.393Z,59.40
2018-03-31T04:25:22.921Z,59.20
2018-03-31T04:27:50.422Z,59.10
2018-03-31T04:30:17.964Z,59.30
2018-03-31T04:32:45.471Z,59.00
2018-03-31T04:35:12.997Z,59.10
2018-03-31T04:37:41.258Z,59.50
2018-03-31T04:40:08.778Z,59.40
2018-03-31T04:42:36.262Z,60.10
2018-03-31T04:45:03.798Z,59.80
2018-03-31T04:47:31.293Z,59.90
2018-03-31T04:49:58.811Z,59.90
2018-03-31T04:52:26.355Z,59.70
2018-03-31T04:54:53.876Z,59.80
2018-03-31T04:57:21.407Z,59.90
2018-03-31T04:59:51.962Z,59.90
2018-03-31T05:02:19.455Z,59.60
2018-03-31T05:04:46.938Z,59.80
2018-03-31T05:07:14.445Z,59.60
2018-03-31T05:09:42.754Z,59.20
2018-03-31T05:12:10.278Z,59.10
2018-03-31T05:14:38.547Z,59.20
2018-03-31T05:17:06.059Z,59.10
2018-03-31T05:19:33.551Z,59.00
2018-03-31T05:22:01.902Z,58.90
2018-03-31T05:24:30.132Z,58.50
2018-03-31T05:26:58.421Z,58.60
2018-03-31T05:29:25.966Z,58.50
2018-03-31T05:31:54.242Z,58.80
2018-03-31T05:34:22.530Z,58.80
2018-03-31T05:36:50.802Z,58.70
2018-03-31T05:39:19.093Z,58.60
2018-03-31T05:41:46.622Z,58.60
2018-03-31T05:44:14.122Z,58.60
2018-03-31T05:46:41.634Z,58.20
2018-03-31T05:49:09.169Z,58.70
2018-03-31T05:51:36.683Z,58.60
2018-03-31T05:54:04.985Z,58.60
2018-03-31T05:56:32.523Z,58.50
2018-03-31T05:59:00.789Z,58.60
2018-03-31T06:01:29.082Z,58.30
2018-03-31T06:03:56.578Z,58.20
2018-03-31T06:06:24.099Z,58.30
2018-03-31T06:08:51.593Z,58.40
2018-03-31T06:11:19.115Z,58.50
2018-03-31T06:13:46.630Z,58.20
2018-03-31T06:16:14.155Z,58.30
2018-03-31T06:18:41.707Z,58.30
2018-03-31T06:21:09.222Z,58.40
2018-03-31T06:23:36.718Z,58.30
2018-03-31T06:26:04.241Z,58.30
2018-03-31T06:28:31.747Z,58.60
2018-03-31T06:30:59.282Z,58.90
2018-03-31T06:33:26.786Z,59.00
2018-03-31T06:35:54.297Z,59.20
2018-03-31T06:38:21.819Z,59.40
2018-03-31T06:40:49.301Z,59.50
2018-03-31T06:43:16.849Z,59.20
2018-03-31T06:45:44.354Z,59.20
2018-03-31T06:48:11.866Z,60.10
2018-03-31T06:50:39.456Z,59.60
2018-03-31T06:53:06.906Z,60.20
2018-03-31T06:55:35.215Z,59.80
2018-03-31T06:58:02.794Z,59.80
2018-03-31T07:00:30.741Z,60.00
2018-03-31T07:02:58.261Z,61.30
2018-03-31T07:05:26.516Z,60.70
2018-03-31T07:07:54.058Z,60.60
2018-03-31T07:10:21.578Z,60.60
2018-03-31T07:12:49.113Z,60.50
2018-03-31T07:15:17.514Z,61.00
2018-03-31T07:17:45.012Z,60.90
2018-03-31T07:20:12.523Z,60.60
2018-03-31T07:22:41.237Z,60.60
2018-03-31T07:25:08.721Z,60.60
2018-03-31T07:27:36.402Z,60.80
2018-03-31T07:30:03.926Z,60.70
2018-03-31T07:32:31.515Z,60.60
2018-03-31T07:34:59.043Z,60.40
2018-03-31T07:37:26.663Z,60.60
2018-03-31T07:39:55.032Z,60.90
2018-03-31T07:42:22.613Z,60.90
2018-03-31T07:44:51.050Z,60.90
2018-03-31T07:47:18.568Z,60.90
2018-03-31T07:49:46.178Z,61.20
2018-03-31T07:52:13.790Z,61.60
2018-03-31T07:54:41.307Z,61.90
2018-03-31T07:57:08.986Z,62.00
2018-03-31T07:59:37.320Z,62.20
2018-03-31T08:02:04.990Z,62.10
2018-03-31T08:04:32.526Z,62.60
2018-03-31T08:07:00.023Z,62.50
2018-03-31T08:09:27.698Z,62.70
2018-03-31T08:11:55.441Z,62.90
2018-03-31T08:14:22.991Z,63.10
2018-03-31T08:16:50.545Z,63.50
2018-03-31T08:19:18.617Z,63.70
2018-03-31T08:21:46.292Z,63.90
2018-03-31T08:24:14.826Z,64.50
2018-03-31T08:26:42.371Z,65.30
2018-03-31T08:29:10.658Z,64.60
2018-03-31T08:31:38.279Z,64.50
2018-03-31T08:34:05.906Z,64.90
2018-03-31T08:36:33.443Z,64.90
2018-03-31T08:39:01.113Z,64.50
2018-03-31T08:41:28.739Z,64.60
2018-03-31T08:43:57.039Z,64.40
2018-03-31T08:46:25.769Z,64.60
2018-03-31T08:48:53.295Z,64.60
2018-03-31T08:51:20.822Z,64.10
2018-03-31T08:53:48.350Z,65.20
2018-03-31T08:56:15.854Z,65.80
2018-03-31T08:58:44.150Z,65.80
2018-03-31T09:01:11.643Z,65.80
2018-03-31T09:03:39.129Z,65.80
2018-03-31T09:06:06.651Z,65.90
2018-03-31T09:08:34.184Z,65.60
2018-03-31T09:11:02.440Z,66.00
2018-03-31T09:13:34.255Z,65.90
2018-03-31T09:16:01.745Z,65.80
2018-03-31T09:18:29.238Z,66.10
2018-03-31T09:20:56.799Z,66.20
2018-03-31T09:23:24.250Z,66.20
2018-03-31T09:25:51.807Z,66.30
2018-03-31T09:28:19.349Z,66.20
2018-03-31T09:30:47.628Z,66.40
2018-03-31T09:33:15.889Z,66.50
2018-03-31T09:35:43.425Z,66.40
2018-03-31T09:40:44.879Z,66.50
2018-03-31T09:43:12.387Z,66.70
2018-03-31T09:45:39.900Z,66.50
2018-03-31T09:48:07.424Z,66.30
2018-03-31T09:50:34.922Z,66.60
2018-03-31T09:53:02.437Z,66.70
2018-03-31T09:55:30.729Z,67.00
2018-03-31T09:57:58.225Z,67.00
2018-03-31T10:00:31.575Z,66.90
2018-03-31T10:02:59.062Z,66.90
2018-03-31T10:05:26.558Z,67.00
2018-03-31T10:07:54.103Z,67.30
2018-03-31T10:10:21.626Z,67.00
2018-03-31T10:12:49.152Z,67.60
2018-03-31T10:15:17.431Z,67.60
2018-03-31T10:17:45.721Z,67.60
2018-03-31T10:20:14.013Z,67.70
2018-03-31T10:22:41.518Z,67.60
2018-03-31T10:25:09.030Z,67.70
2018-03-31T10:27:36.544Z,67.80
2018-03-31T10:30:04.078Z,67.80
2018-03-31T10:32:32.369Z,66.90
2018-03-31T10:34:59.864Z,66.80
2018-03-31T10:37:28.162Z,67.40
2018-03-31T10:39:55.684Z,67.40
2018-03-31T10:42:23.195Z,67.50
2018-03-31T10:44:50.706Z,67.80
2018-03-31T10:47:18.221Z,67.30
2018-03-31T10:49:45.738Z,66.80
2018-03-31T10:52:14.006Z,67.20
2018-03-31T10:54:41.522Z,67.20
2018-03-31T10:57:09.025Z,67.60
2018-03-31T10:59:37.392Z,67.10
2018-03-31T11:02:04.890Z,67.00
2018-03-31T11:04:32.426Z,66.80
2018-03-31T11:07:00.726Z,66.60
2018-03-31T11:09:28.246Z,66.50
2018-03-31T11:11:56.517Z,66.70
2018-03-31T11:14:24.046Z,66.70
2018-03-31T11:16:51.555Z,66.70
2018-03-31T11:19:19.885Z,66.40
2018-03-31T11:21:47.382Z,66.20
2018-03-31T11:24:15.667Z,66.20
2018-03-31T11:26:43.941Z,66.00
2018-03-31T11:29:12.214Z,65.90
2018-03-31T11:31:40.486Z,65.80
2018-03-31T11:34:08.743Z,66.90
2018-03-31T11:36:36.263Z,66.10
2018-03-31T11:39:03.751Z,65.70
2018-03-31T11:41:31.286Z,65.70
2018-03-31T11:43:58.782Z,65.90
2018-03-31T11:46:26.315Z,66.10
2018-03-31T11:48:53.858Z,65.80
2018-03-31T11:51:22.103Z,65.70
2018-03-31T11:53:50.373Z,65.90
2018-03-31T11:56:18.680Z,66.90
2018-03-31T11:58:46.183Z,66.00
2018-03-31T12:01:14.474Z,67.20
2018-03-31T12:03:42.028Z,66.30
2018-03-31T12:06:09.523Z,66.50
2018-03-31T12:08:37.026Z,66.50
2018-03-31T12:11:04.586Z,66.40
2018-03-31T12:13:32.087Z,66.30
2018-03-31T12:16:00.342Z,66.50
2018-03-31T12:18:27.868Z,66.40
2018-03-31T12:20:55.385Z,66.80
2018-03-31T12:23:23.650Z,66.00
2018-03-31T12:25:51.916Z,66.00
2018-03-31T12:28:19.439Z,66.00
2018-03-31T12:30:46.928Z,66.00
2018-03-31T12:33:14.443Z,66.30
2018-03-31T12:35:41.944Z,66.30
2018-03-31T12:38:09.450Z,66.40
2018-03-31T12:40:36.959Z,66.20
2018-03-31T12:43:04.477Z,66.10
2018-03-31T12:45:31.973Z,65.80
2018-03-31T12:47:59.491Z,65.80
2018-03-31T12:50:27.017Z,65.90
2018-03-31T12:52:55.274Z,65.60
2018-03-31T12:55:22.761Z,65.50
2018-03-31T12:57:51.039Z,66.00
2018-03-31T13:00:19.311Z,65.30
2018-03-31T13:02:47.606Z,65.70
2018-03-31T13:05:15.114Z,65.60
2018-03-31T13:07:42.618Z,65.50
2018-03-31T13:10:10.130Z,66.30
2018-03-31T13:12:37.627Z,65.60
2018-03-31T13:15:05.911Z,65.10
2018-03-31T13:17:33.397Z,65.70
2018-03-31T13:20:00.911Z,65.30
2018-03-31T13:22:29.187Z,65.20
2018-03-31T13:24:57.456Z,65.50
2018-03-31T13:27:25.030Z,65.40
2018-03-31T13:29:53.290Z,65.30
2018-03-31T13:32:20.812Z,65.30
2018-03-31T13:34:48.333Z,65.20
2018-03-31T13:37:16.590Z,65.20
2018-03-31T13:39:44.881Z,65.20
2018-03-31T13:42:13.161Z,65.30
2018-03-31T13:44:40.664Z,65.20
2018-03-31T13:47:08.174Z,65.80
2018-03-31T13:49:36.438Z,65.60
2018-03-31T13:52:03.951Z,65.50
2018-03-31T13:54:31.483Z,65.20
2018-03-31T13:56:58.992Z,66.10
2018-03-31T13:59:26.502Z,66.00
2018-03-31T14:01:54.002Z,66.30
2018-03-31T14:04:21.510Z,66.70
2018-03-31T14:06:49.051Z,67.00
2018-03-31T14:09:17.308Z,67.20
2018-03-31T14:11:44.813Z,67.10
2018-03-31T14:14:12.329Z,67.20
2018-03-31T14:16:39.819Z,67.40
2018-03-31T14:19:08.134Z,67.70
2018-03-31T14:21:35.605Z,67.60
2018-03-31T14:24:03.146Z,67.20
2018-03-31T14:29:05.282Z,66.30
2018-03-31T14:31:33.571Z,67.50
2018-03-31T14:34:01.878Z,67.10
2018-03-31T14:36:29.375Z,67.00
2018-03-31T14:38:56.904Z,66.90
2018-03-31T14:41:24.392Z,67.30
2018-03-31T14:43:51.882Z,67.50
2018-03-31T14:46:20.160Z,67.80
2018-03-31T14:48:48.409Z,67.60
2018-03-31T14:51:15.982Z,67.60
2018-03-31T14:53:44.238Z,68.50
2018-03-31T14:56:11.752Z,68.00
2018-03-31T14:58:39.277Z,68.30
2018-03-31T15:01:07.563Z,68.10
2018-03-31T15:03:35.849Z,68.20
2018-03-31T15:06:04.111Z,67.90
2018-03-31T15:08:32.362Z,68.40
2018-03-31T15:10:59.885Z,68.30
2018-03-31T15:13:27.374Z,68.80
2018-03-31T15:15:54.909Z,68.70
2018-03-31T15:18:22.379Z,69.00
2018-03-31T15:20:49.910Z,69.00
2018-03-31T15:23:17.397Z,68.80
2018-03-31T15:25:45.470Z,69.10
2018-03-31T15:28:13.725Z,69.30
2018-03-31T15:30:41.255Z,69.30
2018-03-31T15:33:09.544Z,69.50
2018-03-31T15:35:37.890Z,69.80
2018-03-31T15:38:06.230Z,69.70
2018-03-31T15:40:33.725Z,69.80
2018-03-31T15:43:01.246Z,70.10
2018-03-31T15:45:28.773Z,70.20
2018-03-31T15:47:57.055Z,69.80
2018-03-31T15:50:24.588Z,69.80
2018-03-31T15:52:52.089Z,69.30
2018-03-31T15:55:19.687Z,70.00
2018-03-31T15:57:47.170Z,70.00
2018-03-31T16:00:15.461Z,70.10
2018-03-31T16:02:43.720Z,70.00
2018-03-31T16:05:12.041Z,69.10
2018-03-31T16:07:39.530Z,69.70
2018-03-31T16:10:07.062Z,69.50
2018-03-31T16:12:34.545Z,69.50
2018-03-31T16:15:02.042Z,70.00
2018-03-31T16:17:30.329Z,70.10
2018-03-31T16:19:58.660Z,70.40
2018-03-31T16:22:26.134Z,70.40
2018-03-31T16:24:53.732Z,70.80
2018-03-31T16:27:21.248Z,70.80
2018-03-31T16:29:48.756Z,70.70
2018-03-31T16:32:16.277Z,70.80
2018-03-31T16:34:43.788Z,71.00
2018-03-31T16:37:12.114Z,70.80
2018-03-31T16:39:39.665Z,70.60
2018-03-31T16:42:07.238Z,70.80
2018-03-31T16:44:35.511Z,71.40
2018-03-31T16:47:03.026Z,71.20
2018-03-31T16:49:30.522Z,71.10
2018-03-31T16:51:58.037Z,71.70
2018-03-31T16:54:25.558Z,71.60
2018-03-31T16:56:53.054Z,71.10
2018-03-31T16:59:20.542Z,70.90
2018-03-31T17:01:48.068Z,71.00
2018-03-31T17:04:15.589Z,71.10
2018-03-31T17:06:43.865Z,70.60
2018-03-31T17:09:12.127Z,71.30
2018-03-31T17:11:39.642Z,70.40
2018-03-31T17:14:07.121Z,70.70
2018-03-31T17:16:34.632Z,70.80
2018-03-31T17:19:02.905Z,70.90
2018-03-31T17:21:31.186Z,71.10
2018-03-31T17:23:59.547Z,71.50
2018-03-31T17:26:27.830Z,72.10
2018-03-31T17:28:55.321Z,72.00
2018-03-31T17:31:22.835Z,72.20
2018-03-31T17:33:50.406Z,71.90
2018-03-31T17:36:18.680Z,71.60
2018-03-31T17:38:46.970Z,71.30
2018-03-31T17:41:14.494Z,71.20
2018-03-31T17:43:41.987Z,71.40
2018-03-31T17:46:10.270Z,71.10
2018-03-31T17:48:37.814Z,71.00
2018-03-31T17:51:06.076Z,71.10
2018-03-31T17:53:33.587Z,71.00
2018-03-31T17:56:01.143Z,71.20
2018-03-31T17:58:28.647Z,70.90
2018-03-31T18:00:56.276Z,70.60
2018-03-31T18:03:24.502Z,70.80
2018-03-31T18:05:52.790Z,70.90
2018-03-31T18:08:21.059Z,70.80
2018-03-31T18:10:49.315Z,71.00
2018-03-31T18:13:16.831Z,70.90
2018-03-31T18:15:44.333Z,71.10
2018-03-31T18:18:11.823Z,71.10
2018-03-31T18:20:39.346Z,71.60
2018-03-31T18:23:06.854Z,71.10
2018-03-31T18:25:34.338Z,71.10
2018-03-31T18:28:01.846Z,71.10
2018-03-31T18:30:30.114Z,70.90
2018-03-31T18:32:57.633Z,70.80
2018-03-31T18:35:25.118Z,70.70
2018-03-31T18:37:52.704Z,71.10
2018-03-31T18:40:20.988Z,71.50
2018-03-31T18:42:49.246Z,71.60
2018-03-31T18:45:16.771Z,71.60
2018-03-31T18:47:44.259Z,71.20
2018-03-31T18:50:11.820Z,71.60
2018-03-31T18:52:39.316Z,71.70
2018-03-31T18:55:06.841Z,71.60
2018-03-31T18:57:34.340Z,71.70
2018-03-31T19:00:01.835Z,72.00
2018-03-31T19:02:29.409Z,71.80
2018-03-31T19:04:56.969Z,71.90
2018-03-31T19:07:24.548Z,72.30
2018-03-31T19:09:52.800Z,72.20
2018-03-31T19:12:20.304Z,72.20
2018-03-31T19:14:47.831Z,72.20
2018-03-31T19:17:15.330Z,72.20
2018-03-31T19:19:42.853Z,72.00
2018-03-31T19:22:10.333Z,72.30
2018-03-31T19:24:43.510Z,72.10
2018-03-31T19:27:11.894Z,71.90
2018-03-31T19:29:40.144Z,71.90
2018-03-31T19:32:07.658Z,71.90
2018-03-31T19:34:35.184Z,72.20
2018-03-31T19:37:02.692Z,72.30
2018-03-31T19:39:35.967Z,72.20
2018-03-31T19:42:03.428Z,72.50
2018-03-31T19:44:30.929Z,72.30
2018-03-31T19:46:58.461Z,72.00
2018-03-31T19:49:25.980Z,71.60
2018-03-31T19:51:54.243Z,71.90
2018-03-31T19:54:22.506Z,72.30
2018-03-31T19:56:50.077Z,72.30
2018-03-31T19:59:18.349Z,73.00
2018-03-31T20:01:46.626Z,73.00
2018-03-31T20:04:14.906Z,72.90
2018-03-31T20:06:43.166Z,72.70
2018-03-31T20:09:10.678Z,72.60
2018-03-31T20:11:38.206Z,72.70
2018-03-31T20:14:06.495Z,73.00
2018-03-31T20:16:34.760Z,72.90
2018-03-31T20:19:02.270Z,72.90
2018-03-31T20:21:29.757Z,72.50
2018-03-31T20:23:57.276Z,72.20
2018-03-31T20:26:24.782Z,72.50
2018-03-31T20:28:52.304Z,72.60
2018-03-31T20:31:19.826Z,72.70
2018-03-31T20:33:47.343Z,73.30
2018-03-31T20:36:14.887Z,72.90
2018-03-31T20:38:42.373Z,72.20
2018-03-31T20:41:09.942Z,72.70
2018-03-31T20:43:38.203Z,72.90
2018-03-31T20:46:05.692Z,72.10
2018-03-31T20:48:33.983Z,72.30
2018-03-31T20:51:01.536Z,72.30
2018-03-31T20:53:29.067Z,72.00
2018-03-31T20:55:57.330Z,71.90
2018-03-31T20:58:24.914Z,71.50
2018-03-31T21:00:53.169Z,71.60
2018-03-31T21:03:20.694Z,71.50
2018-03-31T21:05:48.199Z,72.10
2018-03-31T21:08:15.734Z,72.20
2018-03-31T21:10:43.241Z,71.80
2018-03-31T21:13:10.762Z,72.20
2018-03-31T21:15:38.301Z,71.90
2018-03-31T21:18:05.806Z,71.90
2018-03-31T21:20:34.074Z,72.00
2018-03-31T21:23:01.596Z,71.90
2018-03-31T21:25:29.105Z,72.70
2018-03-31T21:27:57.395Z,71.90
2018-03-31T21:30:24.897Z,71.90
2018-03-31T21:32:52.455Z,72.80
2018-03-31T21:35:19.950Z,72.30
2018-03-31T21:37:48.224Z,72.60
2018-03-31T21:40:15.832Z,71.90
2018-03-31T21:42:44.113Z,72.20
2018-03-31T21:45:11.646Z,72.20
2018-03-31T21:47:39.126Z,72.20
2018-03-31T21:50:06.649Z,72.10
2018-03-31T21:52:34.902Z,72.20
2018-03-31T21:55:02.413Z,72.80
2018-03-31T21:57:29.930Z,72.30
2018-03-31T21:59:57.554Z,72.30
2018-03-31T22:02:25.049Z,72.30
2018-03-31T22:04:52.555Z,72.20
2018-03-31T22:07:20.067Z,71.80
2018-03-31T22:09:47.554Z,71.50
2018-03-31T22:12:15.053Z,71.50
2018-03-31T22:14:48.337Z,71.80
2018-03-31T22:17:15.823Z,71.90
2018-03-31T22:19:43.314Z,72.20
2018-03-31T22:22:11.606Z,72.50
2018-03-31T22:24:39.103Z,72.50
2018-03-31T22:27:06.590Z,72.40
2018-03-31T22:29:34.871Z,72.60
2018-03-31T22:32:03.135Z,72.60
2018-03-31T22:34:30.655Z,72.50
2018-03-31T22:36:58.162Z,72.20
2018-03-31T22:39:26.422Z,71.60
2018-03-31T22:41:53.958Z,71.60
2018-03-31T22:44:21.466Z,71.90
2018-03-31T22:46:49.716Z,72.00
2018-03-31T22:49:17.228Z,71.90
2018-03-31T22:51:44.749Z,72.10
2018-03-31T22:54:12.266Z,72.60
2018-03-31T22:56:39.878Z,72.50
2018-03-31T22:59:08.155Z,72.60
2018-03-31T23:01:36.416Z,72.00
2018-03-31T23:04:05.014Z,72.50
2018-03-31T23:06:32.754Z,72.30
2018-03-31T23:09:01.274Z,72.90
2018-03-31T23:11:29.029Z,72.90
2018-03-31T23:13:56.981Z,72.30
2018-03-31T23:16:24.721Z,72.30
2018-03-31T23:18:53.241Z,71.90
2018-03-31T23:21:20.979Z,71.90
2018-03-31T23:23:49.481Z,72.20
2018-03-31T23:26:17.246Z,72.20
2018-03-31T23:28:45.010Z,71.90
2018-03-31T23:31:12.737Z,71.70
2018-03-31T23:33:40.453Z,71.70
2018-03-31T23:36:08.197Z,71.80
2018-03-31T23:38:35.705Z,71.50
2018-03-31T23:41:03.202Z,70.90
2018-03-31T23:43:30.778Z,71.20
2018-03-31T23:45:58.286Z,71.10
2018-03-31T23:48:25.795Z,71.30
2018-03-31T23:50:53.274Z,71.70
2018-03-31T23:53:20.782Z,72.30
2018-03-31T23:55:48.281Z,71.90
2018-03-31T23:58:16.649Z,71.80
